Empalme Querandies, Argentina
Current Conditions -  °F | °C
As of 10:00 AM on Saturday 22 Nov 2014 (Local Time) from SAZM Reporting Station
Clear Clear  
Wind Chill: 64°   Ceiling: Unl
Heat Index: 64°   Visibility: 6mi
Dew Point: 45°   Wind: 5mph
Humidity: 49%   Direction: 230°SW
Pressure: 29.85"   Gusts: NA
Location:  36.93°S, 60.31°W
Report Text: SAZM 221300Z 23004KT CAVOK 18/07 Q1011
Loading
Personal Weather Stations






























Interactive Weather Map New forecast layout! Learn more

10-Day Weather Forecast

Advertisements
Track Severe Weather on mobile